Kansai International Airport
RJBB : now visible

Airfield :











YOU CAN JOIN US ON...

 
LOGIN :

Register | Disclaimer

   EN    FR    IT 

 









Legend :    VFR   Marginal VFR   IFR   Intensive IFR   Very Intensive IFR
Visi :
Ceiling :
>= 8 km
>= 3000ft
5 to 8 km
1000 to 3000 ft
1500m to 5 km
500 to 1000 ft
800 to 1500m
200 to 500 ft
< 800m
< 200 ft
Symbols :   Thunderstorms  Fog  Heavy snow  Heavy precipitations  Wind > 20 kt







- Airport Elevation : 26 ft
- IATA code : KIX


RJBB - Kansai International

CURRENT METAR :
  • 221200Z 06014KT 9999 FEW035 18/11 Q1016 NOSIG

EXPIRED METARs :
  • 221130Z 05013KT 9999 FEW035 19/11 Q1016 NOSIG
  • 221100Z 03014KT 9999 FEW035 20/11 Q1015 NOSIG
  • 221030Z 02008KT 9999 FEW035 20/11 Q1014 NOSIG
  • 221000Z 01010KT 9999 FEW035 22/11 Q1014 NOSIG
  • 220930Z 02005KT 9999 FEW035 22/12 Q1014 NOSIG

TAF TAF RJBB
Valid from the 22 at 12:00 until the 23 at 18:00 UTC


221105Z 2212/2318 06008KT 9999 FEW030
BECMG 2300/2303 31006KT
BECMG 2303/2306 21016KT
BECMG 2309/2312 05006KT
RJJJ FIR / Asia



MET'MAP, your aeronautical weather chart ! - Copyright ORBIFLY December 2007 - Disclaimer

ORBIFLY MET'MAP TEAM :

Programming & Development : Alexandra Zaïnal
Concept & Development : Baudouin d'Aumeries
Co-Development & Prog : Marc-Olivier Méhu
Technical & hardware support : Manuel Goepfert

Contact : metmap@orbifly.com




SOURCES & CREDITS :

   NOAA       Earth
Advisory